Hauptseite
METAR-TAF:

METAR-TAF

Flughäfen :

Flughafen Kirkwall

Kirkwall, Schottland

Breite: 58-57N, Länge: 002-54W, Höhe: 21 m

Beobachtung

Neuester Wetterbericht von vor 44 Minuten, um 05:50 UTC
Wind 17 kt aus Süd/Südost
Temperatur 11°C
Luftfeuchtigkeit 87%
Luftdruck 1027 hPa
Sichtweite 10 km oder mehr

METAR: EGPA 310550Z AUTO 15017KT 9999 NCD 11/09 Q1027

Zeit: 07:34 (06:34 UTC)

Prognose

Neuester Wetterbericht von vor 4 Stunden und 40 Minuten, um 01:54 UTC
Gültige Prognose vom 31 um 03 UTC bis 31 um 12 UTC
Wind 12 kt aus Süd/Südost
Sichtweite 10 km oder mehr
Leicht bewölkt in der Höhe von 4000 ft
Zeitweise
vom 31 um 03 UTC bis 31 um 09 UTC
Wind 15 kt aus Süd, Böen bis zu 25 kt

TAF: EGPA 310154Z 3103/3112 16012KT 9999 FEW040 TEMPO 3103/3109 17015G25KT

Wetterbeobachtungen und Prognosen von mehr als 4000 Flughäfen (METAR und TAF Bericht).

Die verfügbaren Stationen werden durch gelbe und rote Markierungen auf der Karte dargestellt.

Führen Sie die Maus auf sie, um den Namen der Station zu sehen.

Darauf klicken, um die Beobachtung von Wetterbeobachtungen und Prognosen zu sehen.

Um die Karte zu ändern : klicken Sie auf den grünen Tasten mit einem schwarzen Kreuz Zum Vergrößern, auf den grünen Button mit einem Gedankenstrich zu verkleinern, oder auf die grünen Pfeile für benachbarte Karten.


METAR-TAF: